createdAt,value
2018-01-14T00:00:36.159Z,995.02
2018-01-14T00:01:36.160Z,995.07
2018-01-14T00:02:36.137Z,995.01
2018-01-14T00:03:36.151Z,995.02
2018-01-14T00:04:36.116Z,994.97
2018-01-14T00:05:36.111Z,994.96
2018-01-14T00:06:36.110Z,994.98
2018-01-14T00:07:36.093Z,994.97
2018-01-14T00:08:36.087Z,995.02
2018-01-14T00:09:36.082Z,994.96
2018-01-14T00:10:36.070Z,994.97
2018-01-14T00:11:36.073Z,994.98
2018-01-14T00:12:36.056Z,995.02
2018-01-14T00:13:36.044Z,995
2018-01-14T00:14:36.037Z,995.02
2018-01-14T00:15:36.037Z,995.02
2018-01-14T00:16:36.078Z,994.96
2018-01-14T00:17:36.011Z,994.94
2018-01-14T00:18:36.003Z,994.96
2018-01-14T00:19:36.003Z,994.95
2018-01-14T00:20:35.988Z,994.92
2018-01-14T00:21:35.977Z,994.9
2018-01-14T00:22:35.971Z,994.92
2018-01-14T00:23:35.972Z,994.92
2018-01-14T00:24:35.959Z,994.91
2018-01-14T00:25:35.955Z,994.94
2018-01-14T00:26:35.937Z,994.94
2018-01-14T00:27:35.928Z,994.96
2018-01-14T00:28:35.920Z,994.89
2018-01-14T00:29:35.911Z,994.89
2018-01-14T00:30:36.455Z,994.89
2018-01-14T00:31:35.895Z,994.94
2018-01-14T00:32:35.887Z,994.9
2018-01-14T00:33:35.883Z,994.95
2018-01-14T00:34:35.871Z,994.91
2018-01-14T00:35:35.862Z,994.87
2018-01-14T00:36:35.855Z,994.91
2018-01-14T00:37:35.845Z,994.9
2018-01-14T00:38:35.836Z,994.89
2018-01-14T00:39:35.829Z,994.89
2018-01-14T00:40:35.822Z,994.93
2018-01-14T00:41:35.814Z,994.87
2018-01-14T00:42:35.803Z,994.88
2018-01-14T00:43:35.798Z,994.9
2018-01-14T00:44:35.790Z,994.87
2018-01-14T00:45:35.779Z,994.92
2018-01-14T00:46:35.771Z,994.89
2018-01-14T00:47:35.762Z,994.86
2018-01-14T00:48:35.759Z,994.88
2018-01-14T00:49:35.746Z,994.86
2018-01-14T00:50:35.747Z,994.84
2018-01-14T00:51:35.730Z,994.84
2018-01-14T00:52:35.721Z,994.81
2018-01-14T00:53:35.712Z,994.86
2018-01-14T00:54:35.703Z,994.82
2018-01-14T00:55:35.699Z,994.88
2018-01-14T00:56:35.745Z,994.84
2018-01-14T00:57:35.677Z,994.87
2018-01-14T00:58:35.671Z,994.88
2018-01-14T00:59:35.662Z,994.9
2018-01-14T01:00:35.655Z,994.84
2018-01-14T01:01:35.648Z,994.87
2018-01-14T01:02:35.641Z,994.83
2018-01-14T01:03:35.629Z,994.8
2018-01-14T01:04:35.619Z,994.83
2018-01-14T01:05:35.609Z,994.78
2018-01-14T01:06:35.601Z,994.82
2018-01-14T01:07:35.593Z,994.78
2018-01-14T01:08:35.585Z,994.83
2018-01-14T01:09:35.583Z,994.82
2018-01-14T01:10:35.569Z,994.79
2018-01-14T01:11:35.560Z,994.77
2018-01-14T01:12:35.550Z,994.82
2018-01-14T01:13:35.548Z,994.81
2018-01-14T01:14:35.534Z,994.82
2018-01-14T01:15:35.526Z,994.76
2018-01-14T01:16:35.517Z,994.81
2018-01-14T01:17:35.511Z,994.79
2018-01-14T01:18:35.499Z,994.77
2018-01-14T01:19:35.497Z,994.78
2018-01-14T01:20:35.482Z,994.73
2018-01-14T01:21:35.474Z,994.77
2018-01-14T01:22:35.464Z,994.76
2018-01-14T01:23:35.457Z,994.74
2018-01-14T01:24:35.482Z,994.79
2018-01-14T01:25:35.439Z,994.78
2018-01-14T01:26:35.431Z,994.82
2018-01-14T01:27:35.423Z,994.84
2018-01-14T01:28:35.413Z,994.83
2018-01-14T01:29:35.409Z,994.84
2018-01-14T01:30:35.397Z,994.86
2018-01-14T01:31:35.395Z,994.84
2018-01-14T01:32:35.380Z,994.89
2018-01-14T01:33:35.370Z,994.89
2018-01-14T01:34:35.364Z,994.9
2018-01-14T01:35:35.355Z,994.89
2018-01-14T01:36:35.348Z,994.91
2018-01-14T01:37:35.337Z,994.88
2018-01-14T01:38:35.330Z,994.88
2018-01-14T01:39:35.321Z,994.91
2018-01-14T01:40:35.311Z,994.9
2018-01-14T01:41:35.303Z,994.9
2018-01-14T01:42:35.294Z,994.89
2018-01-14T01:43:35.293Z,994.9
2018-01-14T01:44:35.282Z,994.92
2018-01-14T01:45:35.271Z,994.9
2018-01-14T01:46:39.265Z,994.94
2018-01-14T01:47:35.252Z,994.93
2018-01-14T01:48:35.244Z,994.93
2018-01-14T01:49:35.236Z,994.93
2018-01-14T01:50:35.226Z,994.93
2018-01-14T01:51:35.219Z,994.92
2018-01-14T01:52:35.211Z,994.89
2018-01-14T01:53:35.202Z,994.9
2018-01-14T01:54:35.204Z,994.89
2018-01-14T01:55:35.186Z,994.86
2018-01-14T01:56:35.177Z,994.83
2018-01-14T01:57:35.168Z,994.78
2018-01-14T01:58:35.165Z,994.82
2018-01-14T01:59:35.152Z,994.78
2018-01-14T02:00:35.149Z,994.76
2018-01-14T02:01:35.156Z,994.79
2018-01-14T02:02:35.132Z,994.75
2018-01-14T02:03:35.118Z,994.77
2018-01-14T02:04:35.113Z,994.76
2018-01-14T02:05:35.102Z,994.76
2018-01-14T02:06:35.093Z,994.76
2018-01-14T02:07:35.095Z,994.76
2018-01-14T02:08:35.085Z,994.72
2018-01-14T02:09:35.068Z,994.75
2018-01-14T02:10:35.060Z,994.75
2018-01-14T02:11:35.052Z,994.73
2018-01-14T02:12:35.045Z,994.7
2018-01-14T02:13:35.034Z,994.73
2018-01-14T02:14:35.026Z,994.74
2018-01-14T02:15:35.018Z,994.71
2018-01-14T02:16:35.012Z,994.72
2018-01-14T02:17:35.001Z,994.73
2018-01-14T02:18:34.993Z,994.75
2018-01-14T02:19:34.987Z,994.76
2018-01-14T02:20:34.977Z,994.73
2018-01-14T02:21:34.968Z,994.71
2018-01-14T02:22:34.960Z,994.74
2018-01-14T02:23:34.959Z,994.74
2018-01-14T02:24:34.944Z,994.77
2018-01-14T02:25:34.933Z,994.73
2018-01-14T02:26:34.929Z,994.71
2018-01-14T02:27:34.916Z,994.74
2018-01-14T02:28:34.909Z,994.72
2018-01-14T02:29:34.901Z,994.72
2018-01-14T02:30:34.895Z,994.75
2018-01-14T02:31:34.882Z,994.74
2018-01-14T02:32:37.580Z,994.71
2018-01-14T02:33:34.867Z,994.74
2018-01-14T02:34:34.856Z,994.74
2018-01-14T02:35:34.847Z,994.69
2018-01-14T02:36:34.842Z,994.72
2018-01-14T02:37:34.833Z,994.73
2018-01-14T02:38:34.823Z,994.74
2018-01-14T02:39:34.815Z,994.7
2018-01-14T02:40:34.810Z,994.7
2018-01-14T02:41:34.800Z,994.73
2018-01-14T02:42:34.791Z,994.72
2018-01-14T02:43:34.783Z,994.69
2018-01-14T02:44:34.773Z,994.67
2018-01-14T02:45:34.766Z,994.64
2018-01-14T02:46:34.762Z,994.63
2018-01-14T02:47:34.759Z,994.62
2018-01-14T02:48:34.740Z,994.67
2018-01-14T02:49:34.731Z,994.65
2018-01-14T02:50:34.726Z,994.67
2018-01-14T02:51:34.714Z,994.64
2018-01-14T02:52:34.706Z,994.65
2018-01-14T02:53:34.698Z,994.67
2018-01-14T02:54:34.689Z,994.67
2018-01-14T02:55:34.679Z,994.7
2018-01-14T02:56:34.671Z,994.67
2018-01-14T02:57:34.669Z,994.67
2018-01-14T02:58:34.654Z,994.67
2018-01-14T02:59:34.646Z,994.66
2018-01-14T03:00:34.636Z,994.68
2018-01-14T03:01:34.629Z,994.69
2018-01-14T03:02:34.621Z,994.71
2018-01-14T03:03:34.613Z,994.69
2018-01-14T03:04:34.604Z,994.67
2018-01-14T03:05:34.594Z,994.69
2018-01-14T03:06:34.587Z,994.68
2018-01-14T03:07:34.576Z,994.71
2018-01-14T03:08:34.568Z,994.74
2018-01-14T03:09:34.561Z,994.77
2018-01-14T03:10:34.553Z,994.78
2018-01-14T03:11:34.543Z,994.78
2018-01-14T03:12:34.535Z,994.75
2018-01-14T03:13:34.538Z,994.75
2018-01-14T03:14:34.517Z,994.78
2018-01-14T03:15:34.510Z,994.74
2018-01-14T03:16:34.503Z,994.76
2018-01-14T03:17:34.493Z,994.74
2018-01-14T03:18:34.485Z,994.73
2018-01-14T03:19:34.475Z,994.71
2018-01-14T03:20:34.467Z,994.77
2018-01-14T03:21:34.460Z,994.75
2018-01-14T03:22:34.449Z,994.78
2018-01-14T03:23:34.442Z,994.76
2018-01-14T03:24:34.433Z,994.76
2018-01-14T03:25:34.429Z,994.76
2018-01-14T03:26:34.422Z,994.77
2018-01-14T03:27:34.407Z,994.77
2018-01-14T03:28:34.399Z,994.75
2018-01-14T03:29:34.389Z,994.72
2018-01-14T03:30:34.382Z,994.78
2018-01-14T03:31:34.382Z,994.72
2018-01-14T03:32:34.369Z,994.75
2018-01-14T03:33:34.357Z,994.78
2018-01-14T03:34:34.347Z,994.81
2018-01-14T03:35:34.340Z,994.78
2018-01-14T03:36:34.339Z,994.78
2018-01-14T03:37:34.324Z,994.81
2018-01-14T03:38:34.313Z,994.77
2018-01-14T03:39:34.308Z,994.8
2018-01-14T03:40:34.296Z,994.83
2018-01-14T03:41:34.357Z,994.78
2018-01-14T03:42:34.346Z,994.76
2018-01-14T03:43:34.272Z,994.74
2018-01-14T03:44:34.262Z,994.72
2018-01-14T03:45:34.253Z,994.71
2018-01-14T03:46:34.250Z,994.72
2018-01-14T03:47:34.235Z,994.69
2018-01-14T03:48:34.230Z,994.72
2018-01-14T03:49:34.220Z,994.74
2018-01-14T03:50:34.211Z,994.75
2018-01-14T03:51:34.226Z,994.72
2018-01-14T03:52:34.193Z,994.74
2018-01-14T03:53:34.185Z,994.69
2018-01-14T03:54:34.178Z,994.73
2018-01-14T03:55:34.174Z,994.75
2018-01-14T03:56:34.171Z,994.78
2018-01-14T03:57:34.151Z,994.76
2018-01-14T03:58:34.141Z,994.77
2018-01-14T03:59:34.132Z,994.75
2018-01-14T04:00:34.125Z,994.78
2018-01-14T04:01:34.126Z,994.77
2018-01-14T04:02:34.109Z,994.73
2018-01-14T04:03:34.098Z,994.73
2018-01-14T04:04:34.096Z,994.76
2018-01-14T04:05:34.081Z,994.78
2018-01-14T04:06:34.090Z,994.78
2018-01-14T04:07:34.063Z,994.79
2018-01-14T04:08:34.056Z,994.82
2018-01-14T04:09:34.047Z,994.78
2018-01-14T04:10:34.042Z,994.78
2018-01-14T04:11:34.049Z,994.77
2018-01-14T04:12:34.022Z,994.77
2018-01-14T04:13:34.018Z,994.79
2018-01-14T04:14:34.003Z,994.8
2018-01-14T04:15:33.995Z,994.8
2018-01-14T04:16:33.995Z,994.75
2018-01-14T04:17:33.989Z,994.81
2018-01-14T04:18:34.008Z,994.78
2018-01-14T04:19:33.962Z,994.82
2018-01-14T04:20:33.951Z,994.82
2018-01-14T04:21:33.964Z,994.84
2018-01-14T04:22:33.941Z,994.83
2018-01-14T04:23:33.990Z,994.82
2018-01-14T04:24:33.920Z,994.83
2018-01-14T04:25:33.909Z,994.85
2018-01-14T04:26:33.935Z,994.86
2018-01-14T04:27:33.891Z,994.79
2018-01-14T04:28:33.882Z,994.85
2018-01-14T04:29:33.874Z,994.82
2018-01-14T04:30:33.873Z,994.81
2018-01-14T04:31:33.881Z,994.82
2018-01-14T04:32:33.848Z,994.85
2018-01-14T04:33:33.847Z,994.8
2018-01-14T04:34:33.831Z,994.81
2018-01-14T04:35:33.824Z,994.78
2018-01-14T04:36:33.821Z,994.78
2018-01-14T04:37:33.805Z,994.78
2018-01-14T04:38:33.794Z,994.82
2018-01-14T04:39:33.794Z,994.8
2018-01-14T04:40:33.779Z,994.81
2018-01-14T04:41:33.772Z,994.85
2018-01-14T04:42:33.811Z,994.86
2018-01-14T04:43:33.750Z,994.87
2018-01-14T04:44:33.789Z,994.87
2018-01-14T04:45:33.734Z,994.88
2018-01-14T04:46:33.733Z,994.93
2018-01-14T04:47:33.715Z,994.89
2018-01-14T04:48:33.706Z,994.93
2018-01-14T04:49:33.696Z,994.9
2018-01-14T04:50:33.688Z,994.91
2018-01-14T04:51:33.684Z,994.88
2018-01-14T04:52:33.670Z,994.89
2018-01-14T04:53:33.662Z,994.86
2018-01-14T04:54:33.671Z,994.89
2018-01-14T04:55:33.644Z,994.9
2018-01-14T04:56:33.647Z,994.88
2018-01-14T04:57:33.626Z,994.88
2018-01-14T04:58:33.618Z,994.87
2018-01-14T04:59:33.612Z,994.89
2018-01-14T05:00:33.601Z,994.88
2018-01-14T05:01:33.599Z,994.86
2018-01-14T05:02:33.584Z,994.84
2018-01-14T05:03:33.579Z,994.84
2018-01-14T05:04:33.564Z,994.86
2018-01-14T05:05:33.556Z,994.85
2018-01-14T05:06:33.550Z,994.89
2018-01-14T05:07:33.539Z,994.89
2018-01-14T05:08:33.532Z,994.89
2018-01-14T05:09:33.521Z,994.86
2018-01-14T05:10:33.512Z,994.88
2018-01-14T05:11:33.512Z,994.84
2018-01-14T05:12:33.494Z,994.93
2018-01-14T05:13:33.487Z,994.91
2018-01-14T05:14:33.477Z,994.91
2018-01-14T05:15:33.470Z,994.9
2018-01-14T05:16:33.466Z,994.9
2018-01-14T05:17:33.451Z,994.92
2018-01-14T05:18:33.442Z,994.88
2018-01-14T05:19:35.634Z,994.88
2018-01-14T05:20:33.428Z,994.89
2018-01-14T05:21:33.429Z,994.92
2018-01-14T05:22:33.405Z,994.95
2018-01-14T05:23:33.399Z,994.94
2018-01-14T05:24:33.389Z,994.92
2018-01-14T05:25:33.386Z,994.94
2018-01-14T05:26:33.372Z,994.93
2018-01-14T05:27:33.363Z,994.93
2018-01-14T05:28:33.355Z,994.96
2018-01-14T05:29:33.352Z,994.96
2018-01-14T05:30:33.344Z,994.96
2018-01-14T05:31:33.329Z,994.93
2018-01-14T05:32:33.321Z,994.97
2018-01-14T05:33:33.310Z,994.96
2018-01-14T05:34:33.302Z,994.93
2018-01-14T05:35:33.302Z,995
2018-01-14T05:36:33.286Z,994.95
2018-01-14T05:37:33.277Z,994.98
2018-01-14T05:38:33.268Z,994.99
2018-01-14T05:39:33.261Z,995.01
2018-01-14T05:40:33.251Z,995
2018-01-14T05:41:33.247Z,995.06
2018-01-14T05:42:33.244Z,995.07
2018-01-14T05:43:33.227Z,995.06
2018-01-14T05:44:33.217Z,995.07
2018-01-14T05:45:33.208Z,995.07
2018-01-14T05:46:33.200Z,995.1
2018-01-14T05:47:33.191Z,995.11
2018-01-14T05:48:33.181Z,995.13
2018-01-14T05:49:33.173Z,995.13
2018-01-14T05:50:33.165Z,995.15
2018-01-14T05:51:33.157Z,995.14
2018-01-14T05:52:33.149Z,995.13
2018-01-14T05:53:33.140Z,995.14
2018-01-14T05:54:33.147Z,995.16
2018-01-14T05:55:33.131Z,995.16
2018-01-14T05:56:33.114Z,995.14
2018-01-14T05:57:33.107Z,995.12
2018-01-14T05:58:33.097Z,995.1
2018-01-14T05:59:33.088Z,995.09
2018-01-14T06:00:33.079Z,995.14
2018-01-14T06:01:33.078Z,995.11
2018-01-14T06:02:33.069Z,995.17
2018-01-14T06:03:33.053Z,995.17
2018-01-14T06:04:33.045Z,995.12
2018-01-14T06:05:33.037Z,995.15
2018-01-14T06:06:33.031Z,995.14
2018-01-14T06:07:33.028Z,995.2
2018-01-14T06:08:33.009Z,995.2
2018-01-14T06:09:33.004Z,995.18
2018-01-14T06:10:32.991Z,995.22
2018-01-14T06:11:32.983Z,995.13
2018-01-14T06:12:32.974Z,995.18
2018-01-14T06:13:32.964Z,995.18
2018-01-14T06:14:32.958Z,995.2
2018-01-14T06:15:32.948Z,995.24
2018-01-14T06:16:32.939Z,995.21
2018-01-14T06:17:32.938Z,995.22
2018-01-14T06:18:32.921Z,995.2
2018-01-14T06:19:32.912Z,995.22
2018-01-14T06:20:32.903Z,995.26
2018-01-14T06:21:32.895Z,995.2
2018-01-14T06:22:32.883Z,995.22
2018-01-14T06:23:32.889Z,995.23
2018-01-14T06:24:32.879Z,995.26
2018-01-14T06:25:32.856Z,995.26
2018-01-14T06:26:32.848Z,995.22
2018-01-14T06:27:32.841Z,995.28
2018-01-14T06:28:32.830Z,995.29
2018-01-14T06:29:32.821Z,995.27
2018-01-14T06:30:32.827Z,995.3
2018-01-14T06:31:32.803Z,995.27
2018-01-14T06:32:32.795Z,995.3
2018-01-14T06:33:32.789Z,995.29
2018-01-14T06:34:32.777Z,995.28
2018-01-14T06:35:32.767Z,995.27
2018-01-14T06:36:32.766Z,995.3
2018-01-14T06:37:32.773Z,995.24
2018-01-14T06:38:32.743Z,995.26
2018-01-14T06:39:32.731Z,995.26
2018-01-14T06:40:32.723Z,995.27
2018-01-14T06:41:32.715Z,995.24
2018-01-14T06:42:32.706Z,995.27
2018-01-14T06:43:32.702Z,995.24
2018-01-14T06:44:32.689Z,995.22
2018-01-14T06:45:32.678Z,995.24
2018-01-14T06:46:32.671Z,995.21
2018-01-14T06:47:32.662Z,995.2
2018-01-14T06:48:32.651Z,995.19
2018-01-14T06:49:32.643Z,995.18
2018-01-14T06:50:33.632Z,995.16
2018-01-14T06:51:32.624Z,995.19
2018-01-14T06:52:32.620Z,995.19
2018-01-14T06:53:32.606Z,995.17
2018-01-14T06:54:32.608Z,995.17
2018-01-14T06:55:32.600Z,995.16
2018-01-14T06:56:32.579Z,995.15
2018-01-14T06:57:32.570Z,995.13
2018-01-14T06:58:32.560Z,995.14
2018-01-14T06:59:32.551Z,995.13
2018-01-14T07:00:32.544Z,995.17
2018-01-14T07:01:32.542Z,995.17
2018-01-14T07:02:32.539Z,995.19
2018-01-14T07:03:32.515Z,995.16
2018-01-14T07:04:32.506Z,995.18
2018-01-14T07:05:32.498Z,995.22
2018-01-14T07:06:32.490Z,995.23
2018-01-14T07:07:32.486Z,995.19
2018-01-14T07:08:32.469Z,995.16
2018-01-14T07:09:32.460Z,995.19
2018-01-14T07:10:32.452Z,995.22
2018-01-14T07:11:32.445Z,995.21
2018-01-14T07:12:32.435Z,995.19
2018-01-14T07:13:32.437Z,995.24
2018-01-14T07:14:32.425Z,995.26
2018-01-14T07:15:32.407Z,995.28
2018-01-14T07:16:32.398Z,995.26
2018-01-14T07:17:32.389Z,995.28
2018-01-14T07:18:32.380Z,995.29
2018-01-14T07:19:32.372Z,995.26
2018-01-14T07:20:32.362Z,995.3
2018-01-14T07:21:32.354Z,995.3
2018-01-14T07:22:32.345Z,995.28
2018-01-14T07:23:32.342Z,995.3
2018-01-14T07:24:32.328Z,995.34
2018-01-14T07:25:32.317Z,995.32
2018-01-14T07:26:32.308Z,995.31
2018-01-14T07:27:32.304Z,995.35
2018-01-14T07:28:32.292Z,995.33
2018-01-14T07:29:32.288Z,995.37
2018-01-14T07:30:32.278Z,995.38
2018-01-14T07:31:32.264Z,995.39
2018-01-14T07:32:32.256Z,995.39
2018-01-14T07:33:32.250Z,995.41
2018-01-14T07:34:32.241Z,995.41
2018-01-14T07:35:32.247Z,995.48
2018-01-14T07:36:32.221Z,995.43
2018-01-14T07:37:32.211Z,995.47
2018-01-14T07:38:32.208Z,995.54
2018-01-14T07:39:32.194Z,995.5
2018-01-14T07:40:32.186Z,995.54
2018-01-14T07:41:32.176Z,995.56
2018-01-14T07:42:32.166Z,995.56
2018-01-14T07:43:32.164Z,995.53
2018-01-14T07:44:32.150Z,995.64
2018-01-14T07:45:32.141Z,995.58
2018-01-14T07:46:32.131Z,995.61
2018-01-14T07:47:32.122Z,995.64
2018-01-14T07:48:32.112Z,995.58
2018-01-14T07:49:32.104Z,995.65
2018-01-14T07:50:32.095Z,995.63
2018-01-14T07:51:32.537Z,995.6
2018-01-14T07:52:32.076Z,995.64
2018-01-14T07:53:32.067Z,995.6
2018-01-14T07:54:32.061Z,995.62
2018-01-14T07:55:32.050Z,995.6
2018-01-14T07:56:32.040Z,995.58
2018-01-14T07:57:32.032Z,995.57
2018-01-14T07:58:32.024Z,995.59
2018-01-14T07:59:32.013Z,995.57
2018-01-14T08:00:32.010Z,995.56
2018-01-14T08:01:32.010Z,995.61
2018-01-14T08:02:31.997Z,995.61
2018-01-14T08:03:31.977Z,995.57
2018-01-14T08:04:31.968Z,995.61
2018-01-14T08:05:31.961Z,995.58
2018-01-14T08:06:31.950Z,995.56
2018-01-14T08:07:31.946Z,995.6
2018-01-14T08:08:31.952Z,995.6
2018-01-14T08:09:31.924Z,995.59
2018-01-14T08:10:31.914Z,995.61
2018-01-14T08:11:31.906Z,995.59
2018-01-14T08:12:31.897Z,995.6
2018-01-14T08:13:31.886Z,995.57
2018-01-14T08:14:31.877Z,995.56
2018-01-14T08:15:31.868Z,995.58
2018-01-14T08:16:31.860Z,995.57
2018-01-14T08:17:31.851Z,995.58
2018-01-14T08:18:31.851Z,995.59
2018-01-14T08:19:31.832Z,995.61
2018-01-14T08:20:31.824Z,995.64
2018-01-14T08:21:31.815Z,995.63
2018-01-14T08:22:31.805Z,995.65
2018-01-14T08:23:31.796Z,995.69
2018-01-14T08:24:31.791Z,995.71
2018-01-14T08:25:31.781Z,995.67
2018-01-14T08:26:31.773Z,995.71
2018-01-14T08:27:31.758Z,995.72
2018-01-14T08:28:31.750Z,995.69
2018-01-14T08:29:31.739Z,995.67
2018-01-14T08:30:31.730Z,995.68
2018-01-14T08:31:31.726Z,995.68
2018-01-14T08:32:31.711Z,995.67
2018-01-14T08:33:31.702Z,995.68
2018-01-14T08:34:31.694Z,995.69
2018-01-14T08:35:31.683Z,995.68
2018-01-14T08:36:31.675Z,995.69
2018-01-14T08:37:31.667Z,995.69
2018-01-14T08:38:31.658Z,995.68
2018-01-14T08:39:31.652Z,995.73
2018-01-14T08:40:31.639Z,995.73
2018-01-14T08:41:31.631Z,995.74
2018-01-14T08:42:31.622Z,995.76
2018-01-14T08:43:31.622Z,995.78
2018-01-14T08:44:31.603Z,995.76
2018-01-14T08:45:31.594Z,995.76
2018-01-14T08:46:31.587Z,995.79
2018-01-14T08:47:31.577Z,995.76
2018-01-14T08:48:31.569Z,995.74
2018-01-14T08:49:31.561Z,995.78
2018-01-14T08:50:31.551Z,995.76
2018-01-14T08:51:31.540Z,995.82
2018-01-14T08:52:36.338Z,995.81
2018-01-14T08:53:31.527Z,995.87
2018-01-14T08:54:31.520Z,995.87
2018-01-14T08:55:31.523Z,995.82
2018-01-14T08:56:31.504Z,995.88
2018-01-14T08:57:31.488Z,995.87
2018-01-14T08:58:31.482Z,995.89
2018-01-14T08:59:31.487Z,995.87
2018-01-14T09:00:31.470Z,995.88
2018-01-14T09:01:31.459Z,995.91
2018-01-14T09:02:31.445Z,995.96
2018-01-14T09:03:31.437Z,995.97
2018-01-14T09:04:31.428Z,995.95
2018-01-14T09:05:31.418Z,995.96
2018-01-14T09:06:31.409Z,995.98
2018-01-14T09:07:31.401Z,995.98
2018-01-14T09:08:31.393Z,995.98
2018-01-14T09:09:31.383Z,995.99
2018-01-14T09:10:31.374Z,995.97
2018-01-14T09:11:31.377Z,995.96
2018-01-14T09:12:31.356Z,996
2018-01-14T09:13:31.349Z,995.96
2018-01-14T09:14:31.341Z,995.98
2018-01-14T09:15:31.334Z,996.03
2018-01-14T09:16:31.322Z,996.02
2018-01-14T09:17:31.313Z,996.01
2018-01-14T09:18:31.308Z,996
2018-01-14T09:19:31.298Z,996.04
2018-01-14T09:20:31.287Z,996.03
2018-01-14T09:21:31.278Z,996.05
2018-01-14T09:22:31.281Z,996.04
2018-01-14T09:23:31.261Z,996.05
2018-01-14T09:24:31.253Z,996.03
2018-01-14T09:25:31.245Z,996.07
2018-01-14T09:26:31.238Z,996.08
2018-01-14T09:27:31.231Z,996.04
2018-01-14T09:28:31.222Z,996.05
2018-01-14T09:29:31.223Z,996.04
2018-01-14T09:30:31.205Z,996.07
2018-01-14T09:31:31.197Z,996.08
2018-01-14T09:32:31.188Z,996.07
2018-01-14T09:33:31.178Z,996.02
2018-01-14T09:34:31.174Z,996.05
2018-01-14T09:35:31.161Z,996.02
2018-01-14T09:36:31.153Z,996.06
2018-01-14T09:37:31.146Z,996.11
2018-01-14T09:38:31.136Z,996.1
2018-01-14T09:39:31.127Z,996.1
2018-01-14T09:40:31.128Z,996.11
2018-01-14T09:41:31.175Z,996.13
2018-01-14T09:42:31.105Z,996.1
2018-01-14T09:43:31.093Z,996.09
2018-01-14T09:44:31.085Z,996.11
2018-01-14T09:45:31.077Z,996.06
2018-01-14T09:46:31.068Z,996.07
2018-01-14T09:47:31.061Z,996.1
2018-01-14T09:48:31.062Z,996.06
2018-01-14T09:49:31.042Z,996.12
2018-01-14T09:50:31.034Z,996.09
2018-01-14T09:51:31.027Z,996.14
2018-01-14T09:52:31.019Z,996.07
2018-01-14T09:53:31.013Z,996.07
2018-01-14T09:54:31.005Z,996.12
2018-01-14T09:55:31.002Z,996.1
2018-01-14T09:56:30.984Z,996.11
2018-01-14T09:57:30.975Z,996.12
2018-01-14T09:58:30.967Z,996.06
2018-01-14T09:59:30.959Z,996.14
2018-01-14T10:00:30.949Z,996.11
2018-01-14T10:01:30.943Z,996.08
2018-01-14T10:02:30.936Z,996.14
2018-01-14T10:03:30.924Z,996.11
2018-01-14T10:04:30.916Z,996.1
2018-01-14T10:05:30.908Z,996.08
2018-01-14T10:06:30.900Z,996.08
2018-01-14T10:07:30.892Z,996.05
2018-01-14T10:08:30.887Z,996.07
2018-01-14T10:09:30.873Z,996.04
2018-01-14T10:10:30.865Z,996.07
2018-01-14T10:11:30.859Z,996.03
2018-01-14T10:12:30.849Z,996.02
2018-01-14T10:13:30.839Z,996.05
2018-01-14T10:14:30.830Z,996.04
2018-01-14T10:15:30.822Z,996.05
2018-01-14T10:16:30.812Z,996.02
2018-01-14T10:17:30.804Z,996
2018-01-14T10:18:30.804Z,996.01
2018-01-14T10:19:30.788Z,995.98
2018-01-14T10:20:30.779Z,995.95
2018-01-14T10:21:30.772Z,995.94
2018-01-14T10:22:30.761Z,995.97
2018-01-14T10:52:53.479Z,995.7
2018-01-14T10:53:53.464Z,995.69
2018-01-14T10:54:53.451Z,995.69
2018-01-14T10:55:53.435Z,995.71
2018-01-14T10:56:53.422Z,995.69
2018-01-14T10:57:53.409Z,995.66
2018-01-14T10:58:53.396Z,995.66
2018-01-14T10:59:53.387Z,995.66
2018-01-14T11:00:53.385Z,995.61
2018-01-14T11:01:53.363Z,995.62
2018-01-14T11:02:53.351Z,995.58
2018-01-14T11:03:53.343Z,995.63
2018-01-14T11:04:53.332Z,995.54
2018-01-14T11:05:53.321Z,995.55
2018-01-14T11:06:53.311Z,995.58
2018-01-14T11:07:54.107Z,995.61
2018-01-14T11:08:53.299Z,995.6
2018-01-14T11:09:53.285Z,995.58
2018-01-14T11:10:53.277Z,995.58
2018-01-14T11:11:53.265Z,995.55
2018-01-14T11:12:53.256Z,995.54
2018-01-14T11:13:53.246Z,995.52
2018-01-14T11:14:53.239Z,995.52
2018-01-14T11:15:53.228Z,995.52
2018-01-14T11:16:53.220Z,995.54
2018-01-14T11:17:53.211Z,995.56
2018-01-14T11:18:53.201Z,995.5
2018-01-14T11:19:53.195Z,995.53
2018-01-14T11:20:53.193Z,995.56
2018-01-14T11:21:53.176Z,995.5
2018-01-14T11:22:53.168Z,995.5
2018-01-14T11:23:53.160Z,995.42
2018-01-14T11:24:53.151Z,995.48
2018-01-14T11:25:53.144Z,995.4
2018-01-14T11:26:53.136Z,995.47
2018-01-14T11:27:53.133Z,995.44
2018-01-14T11:28:53.118Z,995.47
2018-01-14T11:29:53.122Z,995.48
2018-01-14T11:30:53.102Z,995.43
2018-01-14T11:31:53.095Z,995.48
2018-01-14T11:32:53.086Z,995.45
2018-01-14T11:33:53.079Z,995.44
2018-01-14T11:34:53.076Z,995.42
2018-01-14T11:35:53.063Z,995.44
2018-01-14T11:36:53.063Z,995.43
2018-01-14T11:37:53.047Z,995.4
2018-01-14T11:38:53.037Z,995.4
2018-01-14T11:39:53.030Z,995.41
2018-01-14T11:40:53.020Z,995.4
2018-01-14T11:41:53.022Z,995.37
2018-01-14T11:42:53.005Z,995.39
2018-01-14T11:43:52.996Z,995.35
2018-01-14T11:44:53.026Z,995.32
2018-01-14T11:45:52.981Z,995.32
2018-01-14T11:46:52.972Z,995.27
2018-01-14T11:47:52.965Z,995.31
2018-01-14T11:48:52.957Z,995.24
2018-01-14T11:49:52.951Z,995.27
2018-01-14T11:50:52.941Z,995.27
2018-01-14T11:51:52.935Z,995.27
2018-01-14T11:52:52.975Z,995.27
2018-01-14T11:53:52.919Z,995.25
2018-01-14T11:54:52.913Z,995.23
2018-01-14T11:55:52.904Z,995.23
2018-01-14T11:56:52.907Z,995.23
2018-01-14T11:57:52.889Z,995.23
2018-01-14T11:58:52.880Z,995.21
2018-01-14T11:59:52.874Z,995.23
2018-01-14T12:00:52.864Z,995.22
2018-01-14T12:01:52.857Z,995.22
2018-01-14T12:02:52.852Z,995.2
2018-01-14T12:03:52.851Z,995.19
2018-01-14T12:04:52.840Z,995.19
2018-01-14T12:05:52.826Z,995.2
2018-01-14T12:06:52.822Z,995.18
2018-01-14T12:07:52.840Z,995.16
2018-01-14T12:08:52.804Z,995.13
2018-01-14T12:09:52.807Z,995.11
2018-01-14T12:10:52.807Z,995.13
2018-01-14T12:11:52.783Z,995.08
2018-01-14T12:12:52.787Z,995.11
2018-01-14T12:13:52.766Z,995.12
2018-01-14T12:14:52.761Z,995.09
2018-01-14T12:15:52.753Z,995.13
2018-01-14T12:16:52.748Z,995.11
2018-01-14T12:17:52.736Z,995.14
2018-01-14T12:18:52.730Z,995.14
2018-01-14T12:19:52.732Z,995.14
2018-01-14T12:20:52.730Z,995.11
2018-01-14T12:21:52.713Z,995.11
2018-01-14T12:22:52.699Z,995.07
2018-01-14T12:23:52.690Z,995.12
2018-01-14T12:24:52.686Z,995.09
2018-01-14T12:25:52.682Z,995.05
2018-01-14T12:26:52.681Z,995.08
2018-01-14T12:27:52.661Z,995.14
2018-01-14T12:28:52.658Z,995.07
2018-01-14T12:29:52.673Z,995.06
2018-01-14T12:30:52.665Z,995.06
2018-01-14T12:31:52.634Z,995.1
2018-01-14T12:32:52.627Z,995.12
2018-01-14T12:33:52.625Z,995.09
2018-01-14T12:34:52.607Z,995.1
2018-01-14T12:35:52.602Z,995.08
2018-01-14T12:36:52.601Z,995.09
2018-01-14T12:37:52.595Z,995.09
2018-01-14T12:38:52.575Z,995.08
2018-01-14T12:39:52.569Z,995.08
2018-01-14T12:40:52.560Z,995.12
2018-01-14T12:41:52.554Z,995.15
2018-01-14T12:42:52.546Z,995.07
2018-01-14T12:43:52.558Z,995.09
2018-01-14T12:44:52.535Z,995.13
2018-01-14T12:45:52.539Z,995.09
2018-01-14T12:46:52.533Z,995.13
2018-01-14T12:47:52.518Z,995.06
2018-01-14T12:48:52.598Z,995.03
2018-01-14T12:49:52.489Z,995.06
2018-01-14T12:50:52.508Z,995.02
2018-01-14T12:51:52.521Z,995.04
2018-01-14T12:52:52.493Z,995.04
2018-01-14T12:53:52.589Z,995
2018-01-14T12:54:52.463Z,995.03
2018-01-14T12:55:52.458Z,995.04
2018-01-14T12:56:52.458Z,995.02
2018-01-14T12:57:52.454Z,995
2018-01-14T12:58:52.438Z,995.01
2018-01-14T12:59:52.452Z,995.07
2018-01-14T13:00:52.450Z,995.01